createdAt,value
2023-05-13T00:00:19.544Z,4.50
2023-05-13T00:02:46.365Z,3.50
2023-05-13T00:05:13.018Z,2.93
2023-05-13T00:07:41.478Z,2.70
2023-05-13T00:10:08.626Z,4.80
2023-05-13T00:12:35.199Z,3.93
2023-05-13T00:15:01.881Z,2.80
2023-05-13T00:17:28.525Z,3.40
2023-05-13T00:19:55.193Z,3.10
2023-05-13T00:22:21.803Z,3.40
2023-05-13T00:24:48.391Z,2.97
2023-05-13T00:27:14.994Z,3.40
2023-05-13T00:29:41.693Z,4.83
2023-05-13T00:32:08.284Z,3.43
2023-05-13T00:34:35.128Z,5.80
2023-05-13T00:37:01.756Z,3.70
2023-05-13T00:39:29.610Z,5.17
2023-05-13T00:41:56.234Z,3.57
2023-05-13T00:44:22.832Z,2.80
2023-05-13T00:46:49.882Z,3.00
2023-05-13T00:49:16.525Z,2.83
2023-05-13T00:51:43.894Z,3.47
2023-05-13T00:54:10.552Z,5.47
2023-05-13T00:56:38.945Z,4.90
2023-05-13T00:59:05.543Z,3.57
2023-05-13T01:02:04.879Z,4.90
2023-05-13T01:05:00.002Z,4.90
2023-05-13T01:07:48.438Z,4.80
2023-05-13T01:10:21.942Z,5.47
2023-05-13T01:12:54.467Z,3.30
2023-05-13T01:15:25.607Z,5.10
2023-05-13T01:18:06.242Z,3.97
2023-05-13T01:20:34.627Z,5.23
2023-05-13T01:23:01.290Z,5.37
2023-05-13T01:25:28.073Z,3.40
2023-05-13T01:27:55.493Z,4.77
2023-05-13T01:30:23.949Z,5.67
2023-05-13T01:32:51.683Z,3.43
2023-05-13T01:35:20.052Z,4.63
2023-05-13T01:37:48.695Z,5.30
2023-05-13T01:40:30.981Z,3.40
2023-05-13T01:43:01.544Z,3.27
2023-05-13T01:45:29.951Z,4.63
2023-05-13T01:47:57.009Z,5.77
2023-05-13T01:50:24.880Z,6.37
2023-05-13T01:52:51.735Z,6.50
2023-05-13T01:55:19.070Z,6.37
2023-05-13T01:57:48.246Z,6.30
2023-05-13T02:00:15.615Z,6.20
2023-05-13T02:02:42.323Z,6.13
2023-05-13T02:05:09.351Z,6.03
2023-05-13T02:07:37.037Z,6.77
2023-05-13T02:10:03.918Z,6.60
2023-05-13T02:12:32.338Z,6.37
2023-05-13T02:14:58.992Z,6.10
2023-05-13T02:17:25.786Z,6.20
2023-05-13T02:19:53.223Z,6.27
2023-05-13T02:22:19.865Z,6.50
2023-05-13T02:24:46.442Z,6.10
2023-05-13T02:27:16.090Z,7.07
2023-05-13T02:29:43.074Z,6.73
2023-05-13T02:32:10.380Z,7.00
2023-05-13T02:34:36.992Z,7.07
2023-05-13T02:37:04.025Z,7.13
2023-05-13T02:39:31.450Z,6.57
2023-05-13T02:41:59.769Z,7.43
2023-05-13T02:44:31.333Z,8.00
2023-05-13T02:46:57.990Z,6.93
2023-05-13T02:49:24.844Z,7.60
2023-05-13T02:51:51.428Z,6.70
2023-05-13T02:54:22.333Z,7.53
2023-05-13T02:56:48.994Z,7.83
2023-05-13T02:59:15.641Z,8.20
2023-05-13T03:01:42.985Z,7.27
2023-05-13T03:04:09.673Z,7.73
2023-05-13T03:06:36.262Z,7.37
2023-05-13T03:09:02.830Z,7.13
2023-05-13T03:11:29.479Z,7.13
2023-05-13T03:13:56.114Z,7.50
2023-05-13T03:16:22.744Z,7.43
2023-05-13T03:18:49.491Z,7.63
2023-05-13T03:21:19.751Z,7.20
2023-05-13T03:23:46.823Z,8.47
2023-05-13T03:26:13.605Z,8.47
2023-05-13T03:28:40.241Z,7.63
2023-05-13T03:31:07.208Z,8.20
2023-05-13T03:33:37.850Z,7.40
2023-05-13T03:36:05.902Z,7.63
2023-05-13T03:38:32.676Z,7.37
2023-05-13T03:40:59.341Z,7.80
2023-05-13T03:43:26.694Z,7.70
2023-05-13T03:45:58.184Z,7.63
2023-05-13T03:48:25.919Z,7.90
2023-05-13T03:50:54.838Z,7.53
2023-05-13T03:53:22.151Z,7.50
2023-05-13T03:55:48.933Z,7.90
2023-05-13T03:58:16.943Z,7.67
2023-05-13T04:00:46.617Z,8.03
2023-05-13T04:03:17.212Z,8.67
2023-05-13T04:05:48.639Z,7.70
2023-05-13T04:08:15.639Z,7.70
2023-05-13T04:10:43.109Z,8.53
2023-05-13T04:13:09.750Z,7.97
2023-05-13T04:15:36.448Z,8.50
2023-05-13T04:18:05.699Z,7.70
2023-05-13T04:20:32.384Z,8.13
2023-05-13T04:22:59.205Z,7.90
2023-05-13T04:25:25.812Z,8.33
2023-05-13T04:27:53.004Z,8.03
2023-05-13T04:30:26.054Z,7.90
2023-05-13T04:32:52.818Z,7.60
2023-05-13T04:35:20.083Z,8.23
2023-05-13T04:37:51.996Z,7.00
2023-05-13T04:40:19.873Z,8.57
2023-05-13T04:42:54.317Z,9.20
2023-05-13T04:45:24.775Z,8.67
2023-05-13T04:47:51.470Z,8.40
2023-05-13T04:50:18.165Z,8.33
2023-05-13T04:52:47.104Z,8.00
2023-05-13T04:55:14.675Z,9.43
2023-05-13T04:57:41.979Z,7.47
2023-05-13T05:00:10.718Z,8.20
2023-05-13T05:02:39.438Z,8.10
2023-05-13T05:05:06.565Z,7.93
2023-05-13T05:07:34.021Z,8.90
2023-05-13T05:10:01.306Z,8.43
2023-05-13T05:12:31.105Z,8.20
2023-05-13T05:14:57.845Z,7.03
2023-05-13T05:17:24.589Z,7.43
2023-05-13T05:19:51.341Z,7.37
2023-05-13T05:22:17.927Z,8.03
2023-05-13T05:24:47.658Z,3.87
2023-05-13T05:27:14.242Z,7.63
2023-05-13T05:29:40.821Z,8.00
2023-05-13T05:32:07.902Z,7.83
2023-05-13T05:34:34.885Z,6.63
2023-05-13T05:37:01.554Z,8.10
2023-05-13T05:39:28.602Z,7.87
2023-05-13T05:41:55.569Z,7.33
2023-05-13T05:44:22.225Z,8.03
2023-05-13T05:46:48.906Z,5.37
2023-05-13T05:49:16.590Z,5.40
2023-05-13T05:51:43.974Z,7.13
2023-05-13T05:54:11.048Z,7.60
2023-05-13T05:56:38.500Z,6.70
2023-05-13T05:59:05.555Z,5.13
2023-05-13T06:01:34.120Z,7.27
2023-05-13T06:04:00.895Z,7.53
2023-05-13T06:06:27.611Z,3.50
2023-05-13T06:08:54.276Z,6.80
2023-05-13T06:11:21.501Z,6.20
2023-05-13T06:13:48.357Z,6.63
2023-05-13T06:16:15.159Z,5.80
2023-05-13T06:18:42.981Z,6.67
2023-05-13T06:21:09.860Z,3.00
2023-05-13T06:23:36.704Z,2.80
2023-05-13T06:26:03.502Z,3.87
2023-05-13T06:28:30.185Z,2.80
2023-05-13T06:30:57.368Z,3.43
2023-05-13T06:33:24.142Z,6.37
2023-05-13T06:35:50.894Z,2.77
2023-05-13T06:38:20.613Z,2.50
2023-05-13T06:40:48.779Z,3.67
2023-05-13T06:43:17.985Z,2.53
2023-05-13T06:45:48.756Z,3.07
2023-05-13T06:48:16.151Z,5.43
2023-05-13T06:50:42.854Z,2.97
2023-05-13T06:53:11.756Z,2.53
2023-05-13T06:55:41.485Z,5.27
2023-05-13T06:58:08.970Z,4.90
2023-05-13T07:00:40.108Z,5.40
2023-05-13T07:03:07.604Z,2.93
2023-05-13T07:05:34.705Z,2.90
2023-05-13T07:08:06.511Z,4.33
2023-05-13T07:10:34.063Z,4.50
2023-05-13T07:13:01.991Z,5.40
2023-05-13T07:15:28.864Z,5.03
2023-05-13T07:17:55.559Z,2.83
2023-05-13T07:20:23.390Z,2.77
2023-05-13T07:22:50.879Z,2.73
2023-05-13T07:25:18.747Z,2.30
2023-05-13T07:27:45.718Z,2.70
2023-05-13T07:30:12.722Z,2.53
2023-05-13T07:32:39.834Z,2.70
2023-05-13T07:35:07.619Z,2.20
2023-05-13T07:37:34.252Z,5.33
2023-05-13T07:40:00.899Z,3.40
2023-05-13T07:42:29.792Z,2.60
2023-05-13T07:44:56.495Z,2.77
2023-05-13T07:47:24.795Z,4.97
2023-05-13T07:49:51.422Z,3.17
2023-05-13T07:52:18.108Z,3.03
2023-05-13T07:54:44.733Z,3.50
2023-05-13T07:57:11.522Z,2.70
2023-05-13T07:59:38.134Z,2.73
2023-05-13T08:02:05.062Z,2.33
2023-05-13T08:04:31.714Z,2.83
2023-05-13T08:06:58.429Z,4.67
2023-05-13T08:09:25.090Z,4.23
2023-05-13T08:11:51.755Z,2.37
2023-05-13T08:14:18.387Z,4.20
2023-05-13T08:16:45.090Z,2.73
2023-05-13T08:19:13.931Z,4.47
2023-05-13T08:21:40.957Z,4.43
2023-05-13T08:24:07.934Z,4.20
2023-05-13T08:26:34.573Z,3.90
2023-05-13T08:29:01.156Z,4.03
2023-05-13T08:31:27.917Z,4.33
2023-05-13T08:33:54.795Z,3.67
2023-05-13T08:36:26.141Z,4.53
2023-05-13T08:38:53.053Z,4.50
2023-05-13T08:41:21.865Z,4.50
2023-05-13T08:43:51.816Z,4.10
2023-05-13T08:46:19.275Z,4.10
2023-05-13T08:48:46.922Z,4.67
2023-05-13T08:51:13.662Z,4.57
2023-05-13T08:53:41.047Z,4.10
2023-05-13T08:56:10.634Z,3.67
2023-05-13T08:58:37.235Z,3.70
2023-05-13T09:01:05.250Z,4.50
2023-05-13T09:03:32.362Z,4.10
2023-05-13T09:06:03.110Z,3.87
2023-05-13T09:08:30.207Z,4.07
2023-05-13T09:10:57.742Z,4.63
2023-05-13T09:13:24.384Z,3.23
2023-05-13T09:15:51.787Z,3.83
2023-05-13T09:18:19.359Z,4.03
2023-05-13T09:20:46.550Z,4.10
2023-05-13T09:23:13.767Z,3.70
2023-05-13T09:25:40.468Z,3.97
2023-05-13T09:28:08.339Z,4.10
2023-05-13T09:30:40.121Z,4.23
2023-05-13T09:33:11.934Z,4.00
2023-05-13T09:35:49.857Z,3.90
2023-05-13T09:38:27.570Z,3.50
2023-05-13T09:40:56.494Z,3.97
2023-05-13T09:43:33.188Z,3.53
2023-05-13T09:46:04.997Z,4.13
2023-05-13T09:48:33.423Z,4.30
2023-05-13T09:51:00.860Z,4.17
2023-05-13T09:53:28.530Z,3.83
2023-05-13T09:55:57.495Z,3.53
2023-05-13T09:58:25.278Z,4.10
2023-05-13T10:00:52.580Z,4.00
2023-05-13T10:03:19.742Z,3.70
2023-05-13T10:05:48.451Z,3.67
2023-05-13T10:08:15.524Z,4.00
2023-05-13T10:10:45.673Z,3.87
2023-05-13T10:13:16.012Z,3.50
2023-05-13T10:15:54.101Z,3.70
2023-05-13T10:18:22.217Z,3.90
2023-05-13T10:20:53.093Z,3.13
2023-05-13T10:23:21.440Z,3.83
2023-05-13T10:25:48.730Z,3.90
2023-05-13T10:28:16.600Z,3.93
2023-05-13T10:30:44.440Z,7.20
2023-05-13T10:33:11.344Z,3.97
2023-05-13T10:35:43.200Z,3.93
2023-05-13T10:38:19.840Z,3.80
2023-05-13T10:40:59.866Z,3.43
2023-05-13T10:43:30.864Z,3.37
2023-05-13T10:46:04.267Z,3.93
2023-05-13T10:48:47.152Z,3.73
2023-05-13T10:51:15.262Z,3.60
2023-05-13T10:53:53.880Z,3.13
2023-05-13T10:56:26.440Z,3.63
2023-05-13T10:59:04.277Z,3.63
2023-05-13T11:01:36.194Z,4.13
2023-05-13T11:04:04.710Z,3.13
2023-05-13T11:06:39.474Z,3.30
2023-05-13T11:09:07.958Z,3.47
2023-05-13T11:11:35.913Z,3.27
2023-05-13T11:14:22.579Z,3.43
2023-05-13T11:17:18.571Z,3.50
2023-05-13T11:19:46.794Z,3.50
2023-05-13T11:22:31.861Z,3.90
2023-05-13T11:25:07.532Z,3.60
2023-05-13T11:27:39.855Z,3.90
2023-05-13T11:30:08.599Z,3.70
2023-05-13T11:32:50.948Z,4.00
2023-05-13T11:35:23.658Z,3.47
2023-05-13T11:37:50.786Z,3.80
2023-05-13T11:40:25.503Z,3.27
2023-05-13T11:42:52.969Z,3.33
2023-05-13T11:45:24.003Z,3.33
2023-05-13T11:47:52.560Z,3.23
2023-05-13T11:50:30.363Z,3.67
2023-05-13T11:52:58.855Z,3.27
2023-05-13T11:55:27.015Z,4.00
2023-05-13T11:57:54.184Z,3.50
2023-05-13T12:00:31.710Z,3.43
2023-05-13T12:02:59.687Z,3.57
2023-05-13T12:05:27.364Z,3.40
2023-05-13T12:07:58.046Z,3.63
2023-05-13T12:10:25.837Z,3.97
2023-05-13T12:12:52.935Z,3.70
2023-05-13T12:15:22.421Z,3.30
2023-05-13T12:17:50.087Z,2.70
2023-05-13T12:20:21.002Z,3.30
2023-05-13T12:22:48.168Z,3.13
2023-05-13T12:25:41.362Z,3.40
2023-05-13T12:28:24.099Z,3.83
2023-05-13T12:30:56.445Z,3.40
2023-05-13T12:33:30.322Z,3.77
2023-05-13T12:36:25.641Z,3.17
2023-05-13T12:39:03.389Z,3.30
2023-05-13T12:41:35.445Z,3.20
2023-05-13T12:44:03.205Z,3.10
2023-05-13T12:46:30.167Z,3.23
2023-05-13T12:48:59.004Z,3.77
2023-05-13T12:51:26.284Z,3.57
2023-05-13T12:53:54.393Z,3.60
2023-05-13T12:56:22.883Z,3.17
2023-05-13T12:58:51.539Z,3.47
2023-05-13T13:01:22.096Z,3.07
2023-05-13T13:03:49.896Z,3.40
2023-05-13T13:06:17.707Z,3.17
2023-05-13T13:08:44.713Z,3.40
2023-05-13T13:11:14.756Z,3.37
2023-05-13T13:13:43.671Z,3.00
2023-05-13T13:16:10.378Z,3.37
2023-05-13T13:18:37.109Z,3.23
2023-05-13T13:21:05.316Z,3.10
2023-05-13T13:23:32.015Z,3.37
2023-05-13T13:26:01.025Z,3.27
2023-05-13T13:28:28.552Z,3.37
2023-05-13T13:30:55.375Z,3.30
2023-05-13T13:33:22.310Z,3.00
2023-05-13T13:35:49.452Z,2.80
2023-05-13T13:38:16.229Z,3.30
2023-05-13T13:40:43.001Z,3.00
2023-05-13T13:43:09.710Z,3.03
2023-05-13T13:45:37.230Z,3.37
2023-05-13T13:48:04.158Z,3.00
2023-05-13T13:50:30.878Z,3.13
2023-05-13T13:52:57.630Z,3.13
2023-05-13T13:55:24.427Z,3.00
2023-05-13T13:57:51.994Z,2.77
2023-05-13T14:00:24.977Z,3.10
2023-05-13T14:02:51.787Z,3.23
2023-05-13T14:05:19.585Z,2.90
2023-05-13T14:07:48.317Z,2.80
2023-05-13T14:10:15.256Z,2.90
2023-05-13T14:12:41.890Z,2.70
2023-05-13T14:15:08.779Z,3.27
2023-05-13T14:17:35.640Z,2.50
2023-05-13T14:20:02.616Z,3.13
2023-05-13T14:22:29.344Z,4.10
2023-05-13T14:24:56.118Z,14.03
2023-05-13T14:27:24.562Z,2.67
2023-05-13T14:29:51.974Z,2.80
2023-05-13T14:32:18.841Z,3.80
2023-05-13T14:34:46.152Z,2.90
2023-05-13T14:37:12.841Z,2.97
2023-05-13T14:39:40.574Z,3.07
2023-05-13T14:42:07.345Z,3.50
2023-05-13T14:44:34.045Z,4.03
2023-05-13T14:47:01.211Z,3.37
2023-05-13T14:49:28.401Z,2.77
2023-05-13T14:51:55.198Z,2.73
2023-05-13T14:54:24.755Z,2.90
2023-05-13T14:56:52.255Z,3.10
2023-05-13T14:59:19.233Z,3.50
2023-05-13T15:01:46.089Z,2.97
2023-05-13T15:04:12.800Z,8.10
2023-05-13T15:06:39.557Z,3.87
2023-05-13T15:09:06.435Z,3.47
2023-05-13T15:11:33.322Z,2.60
2023-05-13T15:14:01.569Z,2.70
2023-05-13T15:16:28.456Z,2.90
2023-05-13T15:18:55.365Z,3.13
2023-05-13T15:21:22.011Z,3.00
2023-05-13T15:23:48.713Z,3.10
2023-05-13T15:26:15.551Z,2.97
2023-05-13T15:28:42.467Z,2.77
2023-05-13T15:31:09.241Z,2.57
2023-05-13T15:33:36.011Z,2.90
2023-05-13T15:36:02.849Z,3.17
2023-05-13T15:38:29.925Z,3.90
2023-05-13T15:40:56.609Z,3.53
2023-05-13T15:43:23.249Z,3.60
2023-05-13T15:45:50.331Z,3.57
2023-05-13T15:48:17.893Z,3.00
2023-05-13T15:50:44.833Z,3.17
2023-05-13T15:53:11.604Z,2.97
2023-05-13T15:55:39.430Z,3.27
2023-05-13T15:58:06.914Z,4.87
2023-05-13T16:00:33.804Z,3.20
2023-05-13T16:03:00.768Z,3.30
2023-05-13T16:05:27.675Z,2.60
2023-05-13T16:07:57.037Z,2.90
2023-05-13T16:10:23.868Z,3.30
2023-05-13T16:12:50.766Z,2.97
2023-05-13T16:15:17.743Z,6.67
2023-05-13T16:17:44.411Z,3.37
2023-05-13T16:20:11.904Z,3.00
2023-05-13T16:22:39.145Z,2.70
2023-05-13T16:25:08.232Z,2.67
2023-05-13T16:27:36.024Z,2.97
2023-05-13T16:30:04.001Z,2.77
2023-05-13T16:32:30.819Z,3.90
2023-05-13T16:34:57.593Z,3.20
2023-05-13T16:37:24.421Z,3.30
2023-05-13T16:39:51.082Z,3.47
2023-05-13T16:42:19.374Z,3.40
2023-05-13T16:44:47.144Z,3.27
2023-05-13T16:47:14.464Z,3.63
2023-05-13T16:49:41.183Z,3.77
2023-05-13T16:52:08.194Z,3.30
2023-05-13T16:54:34.848Z,3.33
2023-05-13T16:57:01.590Z,3.40
2023-05-13T16:59:28.480Z,4.40
2023-05-13T17:01:55.808Z,3.40
2023-05-13T17:04:22.548Z,3.40
2023-05-13T17:06:49.253Z,2.80
2023-05-13T17:09:16.191Z,3.03
2023-05-13T17:11:43.547Z,3.87
2023-05-13T17:14:10.353Z,3.47
2023-05-13T17:16:37.132Z,2.83
2023-05-13T17:19:04.024Z,3.50
2023-05-13T17:21:30.770Z,3.70
2023-05-13T17:23:57.452Z,3.00
2023-05-13T17:26:24.336Z,3.30
2023-05-13T17:28:51.230Z,3.70
2023-05-13T17:31:19.375Z,3.33
2023-05-13T17:33:46.409Z,3.53
2023-05-13T17:36:13.222Z,2.77
2023-05-13T17:38:41.006Z,2.83
2023-05-13T17:41:07.766Z,3.30
2023-05-13T17:43:34.550Z,3.67
2023-05-13T17:46:02.105Z,4.00
2023-05-13T17:48:29.005Z,3.73
2023-05-13T17:50:55.788Z,2.93
2023-05-13T17:53:22.572Z,3.30
2023-05-13T17:55:49.423Z,3.17
2023-05-13T17:58:16.853Z,3.40
2023-05-13T18:00:43.731Z,3.60
2023-05-13T18:03:10.562Z,4.13
2023-05-13T18:05:37.586Z,3.77
2023-05-13T18:08:04.714Z,3.47
2023-05-13T18:10:31.531Z,3.17
2023-05-13T18:12:58.312Z,4.10
2023-05-13T18:15:25.202Z,3.70
2023-05-13T18:17:52.077Z,3.00
2023-05-13T18:20:19.150Z,3.43
2023-05-13T18:22:45.976Z,2.50
2023-05-13T18:25:13.172Z,3.40
2023-05-13T18:27:40.000Z,3.40
2023-05-13T18:30:07.945Z,3.40
2023-05-13T18:32:34.808Z,3.00
2023-05-13T18:35:01.611Z,3.67
2023-05-13T18:37:28.315Z,3.07
2023-05-13T18:39:57.035Z,3.23
2023-05-13T18:42:24.355Z,3.30
2023-05-13T18:44:51.252Z,3.33
2023-05-13T18:47:18.115Z,3.53
2023-05-13T18:49:45.059Z,4.20
2023-05-13T18:52:11.820Z,3.87
2023-05-13T18:54:38.673Z,3.20
2023-05-13T18:57:05.871Z,3.50
2023-05-13T18:59:32.623Z,3.40
2023-05-13T19:05:53.158Z,3.87
2023-05-13T19:08:19.828Z,3.77
2023-05-13T19:10:46.584Z,4.40
2023-05-13T19:13:14.707Z,3.93
2023-05-13T19:15:41.537Z,3.63
2023-05-13T19:18:08.384Z,3.97
2023-05-13T19:20:35.321Z,4.20
2023-05-13T19:23:05.196Z,4.30
2023-05-13T19:25:32.212Z,3.33
2023-05-13T19:27:59.209Z,4.60
2023-05-13T19:30:26.012Z,3.73
2023-05-13T19:32:53.111Z,4.07
2023-05-13T19:35:19.880Z,3.80
2023-05-13T19:37:46.693Z,4.00
2023-05-13T19:40:13.551Z,3.90
2023-05-13T19:42:40.336Z,3.70
2023-05-13T19:45:07.778Z,4.30
2023-05-13T19:47:34.795Z,4.23
2023-05-13T19:50:01.690Z,3.90
2023-05-13T19:52:28.421Z,4.23
2023-05-13T19:54:55.042Z,4.03
2023-05-13T19:57:21.792Z,4.07
2023-05-13T19:59:48.646Z,3.90
2023-05-13T20:02:15.690Z,4.37
2023-05-13T20:04:42.377Z,4.10
2023-05-13T20:07:11.742Z,4.40
2023-05-13T20:09:38.499Z,4.10
2023-05-13T20:12:05.618Z,4.07
2023-05-13T20:14:46.811Z,4.63
2023-05-13T20:17:22.405Z,3.90
2023-05-13T20:19:55.511Z,4.43
2023-05-13T20:22:31.374Z,4.13
2023-05-13T20:24:59.053Z,3.83
2023-05-13T20:27:25.875Z,4.30
2023-05-13T20:29:53.096Z,4.67
2023-05-13T20:32:24.733Z,4.20
2023-05-13T20:34:52.518Z,3.80
2023-05-13T20:37:21.227Z,4.63
2023-05-13T20:39:50.369Z,3.73
2023-05-13T20:42:22.958Z,4.27
2023-05-13T20:44:53.419Z,4.10
2023-05-13T20:47:20.701Z,4.23
2023-05-13T20:49:50.230Z,4.23
2023-05-13T20:52:17.166Z,3.53
2023-05-13T20:54:44.164Z,4.13
2023-05-13T20:57:11.215Z,4.00
2023-05-13T20:59:38.019Z,4.17
2023-05-13T21:02:04.951Z,3.67
2023-05-13T21:04:32.060Z,4.13
2023-05-13T21:06:58.940Z,3.90
2023-05-13T21:09:26.653Z,4.07
2023-05-13T21:11:53.551Z,5.03
2023-05-13T21:14:23.437Z,4.30
2023-05-13T21:16:50.533Z,4.20
2023-05-13T21:19:24.763Z,4.63
2023-05-13T21:21:55.574Z,4.03
2023-05-13T21:24:33.558Z,4.40
2023-05-13T21:27:00.508Z,4.10
2023-05-13T21:29:30.364Z,4.17
2023-05-13T21:31:57.413Z,4.30
2023-05-13T21:34:24.321Z,4.50
2023-05-13T21:36:51.943Z,3.70
2023-05-13T21:39:18.723Z,4.47
2023-05-13T21:41:45.601Z,3.90
2023-05-13T21:44:12.377Z,4.57
2023-05-13T21:46:39.238Z,4.20
2023-05-13T21:49:06.152Z,4.33
2023-05-13T21:51:33.028Z,4.10
2023-05-13T21:53:59.772Z,4.30
2023-05-13T21:56:26.690Z,4.33
2023-05-13T21:58:53.600Z,4.37
2023-05-13T22:01:21.229Z,3.83
2023-05-13T22:03:48.161Z,4.20
2023-05-13T22:06:14.964Z,4.80
2023-05-13T22:08:41.940Z,4.23
2023-05-13T22:11:08.841Z,4.50
2023-05-13T22:13:35.783Z,4.50
2023-05-13T22:16:02.914Z,4.17
2023-05-13T22:18:30.055Z,3.97
2023-05-13T22:20:58.704Z,4.30
2023-05-13T22:23:25.680Z,4.63
2023-05-13T22:25:52.688Z,4.60
2023-05-13T22:28:19.755Z,4.00
2023-05-13T22:30:46.691Z,4.13
2023-05-13T22:33:13.593Z,4.27
2023-05-13T22:35:40.513Z,4.47
2023-05-13T22:38:07.376Z,4.87
2023-05-13T22:40:34.299Z,4.50
2023-05-13T22:43:01.224Z,4.40
2023-05-13T22:45:28.467Z,4.53
2023-05-13T22:47:58.180Z,4.20
2023-05-13T22:50:25.300Z,4.30
2023-05-13T22:52:52.397Z,3.80
2023-05-13T22:55:19.213Z,3.93
2023-05-13T22:57:46.338Z,4.07
2023-05-13T23:00:13.667Z,4.30
2023-05-13T23:02:40.795Z,4.17
2023-05-13T23:05:07.901Z,4.23
2023-05-13T23:07:34.774Z,4.60
2023-05-13T23:10:01.616Z,3.97
2023-05-13T23:12:28.354Z,4.00
2023-05-13T23:14:55.358Z,4.30
2023-05-13T23:17:22.385Z,4.33
2023-05-13T23:19:49.152Z,3.70
2023-05-13T23:22:16.123Z,4.23
2023-05-13T23:24:43.554Z,4.00
2023-05-13T23:27:11.476Z,3.70
2023-05-13T23:29:38.281Z,4.10
2023-05-13T23:32:06.990Z,4.03
2023-05-13T23:34:34.181Z,3.60
2023-05-13T23:37:01.150Z,4.80
2023-05-13T23:39:28.149Z,4.63
2023-05-13T23:41:54.955Z,4.53
2023-05-13T23:44:21.660Z,4.33
2023-05-13T23:46:48.264Z,4.47
2023-05-13T23:49:15.035Z,4.70
2023-05-13T23:51:41.669Z,3.90
2023-05-13T23:54:08.293Z,4.20
2023-05-13T23:56:35.128Z,4.20
2023-05-13T23:59:01.856Z,4.20
